sensor_id;sensor_type;location;lat;lon;timestamp;pressure;altitude;pressure_sealevel;temperature
70969;BMP280;58630;43.022;25.100;2024-03-02T00:02:07;;;;13.50
70969;BMP280;58630;43.022;25.100;2024-03-02T00:04:33;;;;13.40
70969;BMP280;58630;43.022;25.100;2024-03-02T00:06:59;;;;13.40
70969;BMP280;58630;43.022;25.100;2024-03-02T00:09:24;;;;13.40
70969;BMP280;58630;43.022;25.100;2024-03-02T00:11:50;;;;13.40
70969;BMP280;58630;43.022;25.100;2024-03-02T00:14:16;;;;13.40
70969;BMP280;58630;43.022;25.100;2024-03-02T00:16:42;;;;13.40
70969;BMP280;58630;43.022;25.100;2024-03-02T00:19:07;;;;13.40
70969;BMP280;58630;43.022;25.100;2024-03-02T00:21:34;;;;13.40
70969;BMP280;58630;43.022;25.100;2024-03-02T00:24:00;;;;13.40
70969;BMP280;58630;43.022;25.100;2024-03-02T00:26:28;;;;13.40
70969;BMP280;58630;43.022;25.100;2024-03-02T00:28:54;;;;13.40
70969;BMP280;58630;43.022;25.100;2024-03-02T00:31:22;;;;13.40
70969;BMP280;58630;43.022;25.100;2024-03-02T00:33:48;;;;13.40
70969;BMP280;58630;43.022;25.100;2024-03-02T00:36:15;;;;13.40
70969;BMP280;58630;43.022;25.100;2024-03-02T00:38:47;;;;13.40
70969;BMP280;58630;43.022;25.100;2024-03-02T00:41:21;;;;13.40
70969;BMP280;58630;43.022;25.100;2024-03-02T00:46:19;;;;13.40
70969;BMP280;58630;43.022;25.100;2024-03-02T00:48:53;;;;13.40
70969;BMP280;58630;43.022;25.100;2024-03-02T00:51:20;;;;13.40
70969;BMP280;58630;43.022;25.100;2024-03-02T00:53:45;;;;13.40
70969;BMP280;58630;43.022;25.100;2024-03-02T00:56:11;;;;13.40
70969;BMP280;58630;43.022;25.100;2024-03-02T00:58:37;;;;13.30
70969;BMP280;58630;43.022;25.100;2024-03-02T01:01:03;;;;13.30
70969;BMP280;58630;43.022;25.100;2024-03-02T01:03:28;;;;13.30
70969;BMP280;58630;43.022;25.100;2024-03-02T01:05:54;;;;13.30
70969;BMP280;58630;43.022;25.100;2024-03-02T01:08:19;;;;13.30
70969;BMP280;58630;43.022;25.100;2024-03-02T01:10:45;;;;13.30
70969;BMP280;58630;43.022;25.100;2024-03-02T01:13:10;;;;13.30
70969;BMP280;58630;43.022;25.100;2024-03-02T01:15:36;;;;13.30
70969;BMP280;58630;43.022;25.100;2024-03-02T01:18:02;;;;13.30
70969;BMP280;58630;43.022;25.100;2024-03-02T01:20:27;;;;13.30
70969;BMP280;58630;43.022;25.100;2024-03-02T01:22:53;;;;13.30
70969;BMP280;58630;43.022;25.100;2024-03-02T01:25:18;;;;13.30
70969;BMP280;58630;43.022;25.100;2024-03-02T01:27:44;;;;13.30
70969;BMP280;58630;43.022;25.100;2024-03-02T01:30:09;;;;13.30
70969;BMP280;58630;43.022;25.100;2024-03-02T01:32:37;;;;13.30
70969;BMP280;58630;43.022;25.100;2024-03-02T01:35:03;;;;13.30
70969;BMP280;58630;43.022;25.100;2024-03-02T01:37:28;;;;13.30
70969;BMP280;58630;43.022;25.100;2024-03-02T01:39:54;;;;13.30
70969;BMP280;58630;43.022;25.100;2024-03-02T01:42:19;;;;13.30
70969;BMP280;58630;43.022;25.100;2024-03-02T01:44:45;;;;13.20
70969;BMP280;58630;43.022;25.100;2024-03-02T01:47:11;;;;13.20
70969;BMP280;58630;43.022;25.100;2024-03-02T01:49:36;;;;13.20
70969;BMP280;58630;43.022;25.100;2024-03-02T01:52:02;;;;13.20
70969;BMP280;58630;43.022;25.100;2024-03-02T01:54:28;;;;13.20
70969;BMP280;58630;43.022;25.100;2024-03-02T01:56:53;;;;13.20
70969;BMP280;58630;43.022;25.100;2024-03-02T01:59:19;;;;13.20
70969;BMP280;58630;43.022;25.100;2024-03-02T02:01:44;;;;13.20
70969;BMP280;58630;43.022;25.100;2024-03-02T02:04:10;;;;13.20
70969;BMP280;58630;43.022;25.100;2024-03-02T02:06:35;;;;13.20
70969;BMP280;58630;43.022;25.100;2024-03-02T02:09:01;;;;13.20
70969;BMP280;58630;43.022;25.100;2024-03-02T02:11:27;;;;13.20
70969;BMP280;58630;43.022;25.100;2024-03-02T02:13:52;;;;13.20
70969;BMP280;58630;43.022;25.100;2024-03-02T02:16:21;;;;13.20
70969;BMP280;58630;43.022;25.100;2024-03-02T02:18:46;;;;13.20
70969;BMP280;58630;43.022;25.100;2024-03-02T02:21:12;;;;13.20
70969;BMP280;58630;43.022;25.100;2024-03-02T02:23:38;;;;13.10
70969;BMP280;58630;43.022;25.100;2024-03-02T02:26:03;;;;13.20
70969;BMP280;58630;43.022;25.100;2024-03-02T02:28:29;;;;13.10
70969;BMP280;58630;43.022;25.100;2024-03-02T02:30:55;;;;13.10
70969;BMP280;58630;43.022;25.100;2024-03-02T02:33:21;;;;13.10
70969;BMP280;58630;43.022;25.100;2024-03-02T02:35:47;;;;13.10
70969;BMP280;58630;43.022;25.100;2024-03-02T02:38:12;;;;13.10
70969;BMP280;58630;43.022;25.100;2024-03-02T02:40:38;;;;13.10
70969;BMP280;58630;43.022;25.100;2024-03-02T02:43:04;;;;13.10
70969;BMP280;58630;43.022;25.100;2024-03-02T02:45:29;;;;13.10
70969;BMP280;58630;43.022;25.100;2024-03-02T02:47:55;;;;13.10
70969;BMP280;58630;43.022;25.100;2024-03-02T02:50:21;;;;13.10
70969;BMP280;58630;43.022;25.100;2024-03-02T02:52:46;;;;13.10
70969;BMP280;58630;43.022;25.100;2024-03-02T02:55:12;;;;13.10
70969;BMP280;58630;43.022;25.100;2024-03-02T02:57:39;;;;13.10
70969;BMP280;58630;43.022;25.100;2024-03-02T03:00:06;;;;13.10
70969;BMP280;58630;43.022;25.100;2024-03-02T03:02:36;;;;13.10
70969;BMP280;58630;43.022;25.100;2024-03-02T03:05:01;;;;13.10
70969;BMP280;58630;43.022;25.100;2024-03-02T03:07:27;;;;13.10
70969;BMP280;58630;43.022;25.100;2024-03-02T03:09:52;;;;13.10
70969;BMP280;58630;43.022;25.100;2024-03-02T03:12:18;;;;13.10
70969;BMP280;58630;43.022;25.100;2024-03-02T03:14:44;;;;13.10
70969;BMP280;58630;43.022;25.100;2024-03-02T03:17:09;;;;13.00
70969;BMP280;58630;43.022;25.100;2024-03-02T03:19:35;;;;13.00
70969;BMP280;58630;43.022;25.100;2024-03-02T03:22:01;;;;13.00
70969;BMP280;58630;43.022;25.100;2024-03-02T03:24:26;;;;13.00
70969;BMP280;58630;43.022;25.100;2024-03-02T03:26:52;;;;13.00
70969;BMP280;58630;43.022;25.100;2024-03-02T03:29:17;;;;13.00
70969;BMP280;58630;43.022;25.100;2024-03-02T03:31:43;;;;13.00
70969;BMP280;58630;43.022;25.100;2024-03-02T03:34:08;;;;13.00
70969;BMP280;58630;43.022;25.100;2024-03-02T03:36:34;;;;13.00
70969;BMP280;58630;43.022;25.100;2024-03-02T03:39:00;;;;13.00
70969;BMP280;58630;43.022;25.100;2024-03-02T03:41:27;;;;13.00
70969;BMP280;58630;43.022;25.100;2024-03-02T03:43:52;;;;13.00
70969;BMP280;58630;43.022;25.100;2024-03-02T03:46:18;;;;13.00
70969;BMP280;58630;43.022;25.100;2024-03-02T03:48:44;;;;13.00
70969;BMP280;58630;43.022;25.100;2024-03-02T03:51:09;;;;13.00
70969;BMP280;58630;43.022;25.100;2024-03-02T03:53:35;;;;13.00
70969;BMP280;58630;43.022;25.100;2024-03-02T03:56:00;;;;13.00
70969;BMP280;58630;43.022;25.100;2024-03-02T03:58:26;;;;13.00
70969;BMP280;58630;43.022;25.100;2024-03-02T04:00:51;;;;13.00
70969;BMP280;58630;43.022;25.100;2024-03-02T04:03:17;;;;13.00
70969;BMP280;58630;43.022;25.100;2024-03-02T04:05:42;;;;13.00
70969;BMP280;58630;43.022;25.100;2024-03-02T04:08:08;;;;13.00
70969;BMP280;58630;43.022;25.100;2024-03-02T04:10:33;;;;12.90
70969;BMP280;58630;43.022;25.100;2024-03-02T04:12:59;;;;12.90
70969;BMP280;58630;43.022;25.100;2024-03-02T04:15:25;;;;12.90
70969;BMP280;58630;43.022;25.100;2024-03-02T04:17:50;;;;12.90
70969;BMP280;58630;43.022;25.100;2024-03-02T04:20:16;;;;12.90
70969;BMP280;58630;43.022;25.100;2024-03-02T04:22:41;;;;12.90
70969;BMP280;58630;43.022;25.100;2024-03-02T04:25:07;;;;12.90
70969;BMP280;58630;43.022;25.100;2024-03-02T04:27:33;;;;12.90
70969;BMP280;58630;43.022;25.100;2024-03-02T04:30:01;;;;12.90
70969;BMP280;58630;43.022;25.100;2024-03-02T04:32:27;;;;12.90
70969;BMP280;58630;43.022;25.100;2024-03-02T04:34:52;;;;12.90
70969;BMP280;58630;43.022;25.100;2024-03-02T04:37:18;;;;12.90
70969;BMP280;58630;43.022;25.100;2024-03-02T04:39:44;;;;12.90
70969;BMP280;58630;43.022;25.100;2024-03-02T04:42:10;;;;12.90
70969;BMP280;58630;43.022;25.100;2024-03-02T04:44:35;;;;12.90
70969;BMP280;58630;43.022;25.100;2024-03-02T04:47:01;;;;12.90
70969;BMP280;58630;43.022;25.100;2024-03-02T04:49:26;;;;12.90
70969;BMP280;58630;43.022;25.100;2024-03-02T04:51:52;;;;12.90
70969;BMP280;58630;43.022;25.100;2024-03-02T04:54:17;;;;12.90
70969;BMP280;58630;43.022;25.100;2024-03-02T04:56:43;;;;12.90
70969;BMP280;58630;43.022;25.100;2024-03-02T04:59:17;;;;12.80
70969;BMP280;58630;43.022;25.100;2024-03-02T05:01:43;;;;12.80
70969;BMP280;58630;43.022;25.100;2024-03-02T05:04:09;;;;12.80
70969;BMP280;58630;43.022;25.100;2024-03-02T05:06:39;;;;12.80
70969;BMP280;58630;43.022;25.100;2024-03-02T05:09:05;;;;12.80
70969;BMP280;58630;43.022;25.100;2024-03-02T05:11:31;;;;12.80
70969;BMP280;58630;43.022;25.100;2024-03-02T05:14:03;;;;12.80
70969;BMP280;58630;43.022;25.100;2024-03-02T05:16:29;;;;12.80
70969;BMP280;58630;43.022;25.100;2024-03-02T05:18:54;;;;12.80
70969;BMP280;58630;43.022;25.100;2024-03-02T05:21:20;;;;12.80
70969;BMP280;58630;43.022;25.100;2024-03-02T05:23:46;;;;12.80
70969;BMP280;58630;43.022;25.100;2024-03-02T05:26:11;;;;12.80
70969;BMP280;58630;43.022;25.100;2024-03-02T05:28:38;;;;12.80
70969;BMP280;58630;43.022;25.100;2024-03-02T05:31:04;;;;12.80
70969;BMP280;58630;43.022;25.100;2024-03-02T05:33:29;;;;12.80
70969;BMP280;58630;43.022;25.100;2024-03-02T05:35:56;;;;12.80
70969;BMP280;58630;43.022;25.100;2024-03-02T05:38:22;;;;12.80
70969;BMP280;58630;43.022;25.100;2024-03-02T05:40:48;;;;12.80
70969;BMP280;58630;43.022;25.100;2024-03-02T05:43:13;;;;12.80
70969;BMP280;58630;43.022;25.100;2024-03-02T05:45:39;;;;12.80
70969;BMP280;58630;43.022;25.100;2024-03-02T05:48:06;;;;12.80
70969;BMP280;58630;43.022;25.100;2024-03-02T05:50:32;;;;12.70
70969;BMP280;58630;43.022;25.100;2024-03-02T05:52:58;;;;12.80
70969;BMP280;58630;43.022;25.100;2024-03-02T05:55:24;;;;12.70
70969;BMP280;58630;43.022;25.100;2024-03-02T05:57:50;;;;12.80
70969;BMP280;58630;43.022;25.100;2024-03-02T06:00:35;;;;12.80
70969;BMP280;58630;43.022;25.100;2024-03-02T06:03:01;;;;12.70
70969;BMP280;58630;43.022;25.100;2024-03-02T06:05:26;;;;12.80
70969;BMP280;58630;43.022;25.100;2024-03-02T06:07:52;;;;12.80
70969;BMP280;58630;43.022;25.100;2024-03-02T06:10:18;;;;12.80
70969;BMP280;58630;43.022;25.100;2024-03-02T06:12:43;;;;12.80
70969;BMP280;58630;43.022;25.100;2024-03-02T06:15:09;;;;12.80
70969;BMP280;58630;43.022;25.100;2024-03-02T06:17:36;;;;12.80
70969;BMP280;58630;43.022;25.100;2024-03-02T06:20:01;;;;12.70
70969;BMP280;58630;43.022;25.100;2024-03-02T06:22:27;;;;12.80
70969;BMP280;58630;43.022;25.100;2024-03-02T06:24:52;;;;12.80
70969;BMP280;58630;43.022;25.100;2024-03-02T06:27:18;;;;12.80
70969;BMP280;58630;43.022;25.100;2024-03-02T06:29:44;;;;12.80
70969;BMP280;58630;43.022;25.100;2024-03-02T06:32:09;;;;12.80
70969;BMP280;58630;43.022;25.100;2024-03-02T06:34:35;;;;12.80
70969;BMP280;58630;43.022;25.100;2024-03-02T06:37:00;;;;12.80
70969;BMP280;58630;43.022;25.100;2024-03-02T06:39:26;;;;12.80
70969;BMP280;58630;43.022;25.100;2024-03-02T06:41:51;;;;12.80
70969;BMP280;58630;43.022;25.100;2024-03-02T06:44:17;;;;12.80
70969;BMP280;58630;43.022;25.100;2024-03-02T06:46:43;;;;12.80
70969;BMP280;58630;43.022;25.100;2024-03-02T06:49:08;;;;12.80
70969;BMP280;58630;43.022;25.100;2024-03-02T06:51:36;;;;12.80
70969;BMP280;58630;43.022;25.100;2024-03-02T06:54:01;;;;12.80
70969;BMP280;58630;43.022;25.100;2024-03-02T06:56:27;;;;12.80
70969;BMP280;58630;43.022;25.100;2024-03-02T06:58:52;;;;12.80
70969;BMP280;58630;43.022;25.100;2024-03-02T07:01:18;;;;12.80
70969;BMP280;58630;43.022;25.100;2024-03-02T07:03:45;;;;12.80
70969;BMP280;58630;43.022;25.100;2024-03-02T07:06:11;;;;12.80
70969;BMP280;58630;43.022;25.100;2024-03-02T07:08:36;;;;12.80
70969;BMP280;58630;43.022;25.100;2024-03-02T07:11:02;;;;12.80
70969;BMP280;58630;43.022;25.100;2024-03-02T07:13:27;;;;12.80
70969;BMP280;58630;43.022;25.100;2024-03-02T07:15:53;;;;12.80
70969;BMP280;58630;43.022;25.100;2024-03-02T07:18:33;;;;12.80
70969;BMP280;58630;43.022;25.100;2024-03-02T07:21:00;;;;12.80
70969;BMP280;58630;43.022;25.100;2024-03-02T07:23:26;;;;12.80
70969;BMP280;58630;43.022;25.100;2024-03-02T07:25:56;;;;12.80
70969;BMP280;58630;43.022;25.100;2024-03-02T07:28:22;;;;12.90
70969;BMP280;58630;43.022;25.100;2024-03-02T07:30:57;;;;12.80
70969;BMP280;58630;43.022;25.100;2024-03-02T07:33:24;;;;12.80
70969;BMP280;58630;43.022;25.100;2024-03-02T07:35:49;;;;12.90
70969;BMP280;58630;43.022;25.100;2024-03-02T07:38:15;;;;12.90
70969;BMP280;58630;43.022;25.100;2024-03-02T07:40:40;;;;12.90
70969;BMP280;58630;43.022;25.100;2024-03-02T07:43:06;;;;12.90
70969;BMP280;58630;43.022;25.100;2024-03-02T07:45:31;;;;12.90
70969;BMP280;58630;43.022;25.100;2024-03-02T07:47:57;;;;12.90
70969;BMP280;58630;43.022;25.100;2024-03-02T07:50:23;;;;12.90
70969;BMP280;58630;43.022;25.100;2024-03-02T07:52:48;;;;12.90
70969;BMP280;58630;43.022;25.100;2024-03-02T07:55:14;;;;12.90
70969;BMP280;58630;43.022;25.100;2024-03-02T07:57:40;;;;12.90
70969;BMP280;58630;43.022;25.100;2024-03-02T08:00:07;;;;12.90
70969;BMP280;58630;43.022;25.100;2024-03-02T08:02:32;;;;12.90
70969;BMP280;58630;43.022;25.100;2024-03-02T08:04:58;;;;12.90
70969;BMP280;58630;43.022;25.100;2024-03-02T08:07:23;;;;12.90
70969;BMP280;58630;43.022;25.100;2024-03-02T08:09:49;;;;12.90
70969;BMP280;58630;43.022;25.100;2024-03-02T08:12:15;;;;12.90
70969;BMP280;58630;43.022;25.100;2024-03-02T08:14:40;;;;12.90
70969;BMP280;58630;43.022;25.100;2024-03-02T08:17:06;;;;12.90
70969;BMP280;58630;43.022;25.100;2024-03-02T08:19:35;;;;12.90
70969;BMP280;58630;43.022;25.100;2024-03-02T08:22:00;;;;12.90
70969;BMP280;58630;43.022;25.100;2024-03-02T08:24:26;;;;12.90
70969;BMP280;58630;43.022;25.100;2024-03-02T08:26:51;;;;12.90
70969;BMP280;58630;43.022;25.100;2024-03-02T08:29:17;;;;12.90
70969;BMP280;58630;43.022;25.100;2024-03-02T08:31:42;;;;12.90
70969;BMP280;58630;43.022;25.100;2024-03-02T08:34:08;;;;12.90
70969;BMP280;58630;43.022;25.100;2024-03-02T08:36:34;;;;12.90
70969;BMP280;58630;43.022;25.100;2024-03-02T08:39:00;;;;12.90
70969;BMP280;58630;43.022;25.100;2024-03-02T08:41:25;;;;13.00
70969;BMP280;58630;43.022;25.100;2024-03-02T08:43:51;;;;13.00
70969;BMP280;58630;43.022;25.100;2024-03-02T08:46:16;;;;13.00
70969;BMP280;58630;43.022;25.100;2024-03-02T08:48:42;;;;13.00
70969;BMP280;58630;43.022;25.100;2024-03-02T08:51:08;;;;13.00
70969;BMP280;58630;43.022;25.100;2024-03-02T08:53:35;;;;13.00
70969;BMP280;58630;43.022;25.100;2024-03-02T08:56:01;;;;13.00
70969;BMP280;58630;43.022;25.100;2024-03-02T08:58:27;;;;13.00
70969;BMP280;58630;43.022;25.100;2024-03-02T09:00:52;;;;13.00
70969;BMP280;58630;43.022;25.100;2024-03-02T09:03:18;;;;13.00
70969;BMP280;58630;43.022;25.100;2024-03-02T09:05:43;;;;13.00
70969;BMP280;58630;43.022;25.100;2024-03-02T09:08:10;;;;13.10
70969;BMP280;58630;43.022;25.100;2024-03-02T09:10:35;;;;13.00
70969;BMP280;58630;43.022;25.100;2024-03-02T09:13:01;;;;13.00
70969;BMP280;58630;43.022;25.100;2024-03-02T09:15:26;;;;13.10
70969;BMP280;58630;43.022;25.100;2024-03-02T09:17:52;;;;13.10
70969;BMP280;58630;43.022;25.100;2024-03-02T09:20:17;;;;13.10
70969;BMP280;58630;43.022;25.100;2024-03-02T09:22:43;;;;13.10
70969;BMP280;58630;43.022;25.100;2024-03-02T09:25:08;;;;13.10
70969;BMP280;58630;43.022;25.100;2024-03-02T09:27:37;;;;13.20
70969;BMP280;58630;43.022;25.100;2024-03-02T09:30:09;;;;13.20
70969;BMP280;58630;43.022;25.100;2024-03-02T09:32:39;;;;13.20
70969;BMP280;58630;43.022;25.100;2024-03-02T09:35:04;;;;13.20
70969;BMP280;58630;43.022;25.100;2024-03-02T09:37:30;;;;13.20
70969;BMP280;58630;43.022;25.100;2024-03-02T09:39:56;;;;13.20
70969;BMP280;58630;43.022;25.100;2024-03-02T09:42:21;;;;13.20
70969;BMP280;58630;43.022;25.100;2024-03-02T09:44:47;;;;13.20
70969;BMP280;58630;43.022;25.100;2024-03-02T09:47:13;;;;13.20
70969;BMP280;58630;43.022;25.100;2024-03-02T09:49:39;;;;13.20
70969;BMP280;58630;43.022;25.100;2024-03-02T09:52:05;;;;13.30
70969;BMP280;58630;43.022;25.100;2024-03-02T09:54:32;;;;13.30
70969;BMP280;58630;43.022;25.100;2024-03-02T09:56:57;;;;13.30
70969;BMP280;58630;43.022;25.100;2024-03-02T09:59:23;;;;13.30
70969;BMP280;58630;43.022;25.100;2024-03-02T10:01:55;;;;13.30
70969;BMP280;58630;43.022;25.100;2024-03-02T10:04:20;;;;13.30
70969;BMP280;58630;43.022;25.100;2024-03-02T10:06:46;;;;13.30
70969;BMP280;58630;43.022;25.100;2024-03-02T10:09:13;;;;13.30
70969;BMP280;58630;43.022;25.100;2024-03-02T10:11:51;;;;13.30
70969;BMP280;58630;43.022;25.100;2024-03-02T10:14:17;;;;13.30
70969;BMP280;58630;43.022;25.100;2024-03-02T10:16:44;;;;13.30
70969;BMP280;58630;43.022;25.100;2024-03-02T10:19:22;;;;13.30
70969;BMP280;58630;43.022;25.100;2024-03-02T10:21:51;;;;13.40
70969;BMP280;58630;43.022;25.100;2024-03-02T10:24:21;;;;13.40
70969;BMP280;58630;43.022;25.100;2024-03-02T10:26:47;;;;13.40
70969;BMP280;58630;43.022;25.100;2024-03-02T10:29:12;;;;13.40
70969;BMP280;58630;43.022;25.100;2024-03-02T10:31:38;;;;13.40
70969;BMP280;58630;43.022;25.100;2024-03-02T10:34:05;;;;13.40
70969;BMP280;58630;43.022;25.100;2024-03-02T10:36:30;;;;13.40
70969;BMP280;58630;43.022;25.100;2024-03-02T10:38:56;;;;13.40
70969;BMP280;58630;43.022;25.100;2024-03-02T10:41:24;;;;13.40
70969;BMP280;58630;43.022;25.100;2024-03-02T10:43:51;;;;13.40
70969;BMP280;58630;43.022;25.100;2024-03-02T10:46:19;;;;13.40
70969;BMP280;58630;43.022;25.100;2024-03-02T10:48:46;;;;13.40
70969;BMP280;58630;43.022;25.100;2024-03-02T10:51:11;;;;13.50
70969;BMP280;58630;43.022;25.100;2024-03-02T10:53:37;;;;13.50
70969;BMP280;58630;43.022;25.100;2024-03-02T10:56:02;;;;13.50
70969;BMP280;58630;43.022;25.100;2024-03-02T10:58:32;;;;13.50
70969;BMP280;58630;43.022;25.100;2024-03-02T11:01:03;;;;13.50
70969;BMP280;58630;43.022;25.100;2024-03-02T11:03:31;;;;13.50
70969;BMP280;58630;43.022;25.100;2024-03-02T11:05:58;;;;13.50
70969;BMP280;58630;43.022;25.100;2024-03-02T11:08:24;;;;13.50
70969;BMP280;58630;43.022;25.100;2024-03-02T11:10:54;;;;13.50
70969;BMP280;58630;43.022;25.100;2024-03-02T11:13:22;;;;13.50
70969;BMP280;58630;43.022;25.100;2024-03-02T11:15:51;;;;13.60
70969;BMP280;58630;43.022;25.100;2024-03-02T11:18:17;;;;13.50
70969;BMP280;58630;43.022;25.100;2024-03-02T11:20:43;;;;13.50
70969;BMP280;58630;43.022;25.100;2024-03-02T11:23:09;;;;13.60
70969;BMP280;58630;43.022;25.100;2024-03-02T11:25:34;;;;13.50
70969;BMP280;58630;43.022;25.100;2024-03-02T11:28:04;;;;13.60
70969;BMP280;58630;43.022;25.100;2024-03-02T11:33:05;;;;13.60
70969;BMP280;58630;43.022;25.100;2024-03-02T11:35:36;;;;13.60
70969;BMP280;58630;43.022;25.100;2024-03-02T11:38:06;;;;13.60
70969;BMP280;58630;43.022;25.100;2024-03-02T11:40:32;;;;13.60
70969;BMP280;58630;43.022;25.100;2024-03-02T11:42:59;;;;13.60
70969;BMP280;58630;43.022;25.100;2024-03-02T11:45:25;;;;13.60
70969;BMP280;58630;43.022;25.100;2024-03-02T11:47:51;;;;13.60
70969;BMP280;58630;43.022;25.100;2024-03-02T11:53:05;;;;13.60
70969;BMP280;58630;43.022;25.100;2024-03-02T11:55:35;;;;13.60
70969;BMP280;58630;43.022;25.100;2024-03-02T11:58:04;;;;13.60
70969;BMP280;58630;43.022;25.100;2024-03-02T12:00:29;;;;13.60
70969;BMP280;58630;43.022;25.100;2024-03-02T12:03:08;;;;13.60
70969;BMP280;58630;43.022;25.100;2024-03-02T12:05:34;;;;13.70
70969;BMP280;58630;43.022;25.100;2024-03-02T12:08:00;;;;13.70
70969;BMP280;58630;43.022;25.100;2024-03-02T12:10:26;;;;13.70
70969;BMP280;58630;43.022;25.100;2024-03-02T12:12:56;;;;13.70
70969;BMP280;58630;43.022;25.100;2024-03-02T12:15:25;;;;13.70
70969;BMP280;58630;43.022;25.100;2024-03-02T12:17:52;;;;13.70
70969;BMP280;58630;43.022;25.100;2024-03-02T12:20:18;;;;13.70
70969;BMP280;58630;43.022;25.100;2024-03-02T12:22:43;;;;13.70
70969;BMP280;58630;43.022;25.100;2024-03-02T12:25:09;;;;13.70
70969;BMP280;58630;43.022;25.100;2024-03-02T12:27:35;;;;13.70
70969;BMP280;58630;43.022;25.100;2024-03-02T12:30:01;;;;13.70
70969;BMP280;58630;43.022;25.100;2024-03-02T12:32:26;;;;13.70
70969;BMP280;58630;43.022;25.100;2024-03-02T12:34:52;;;;13.70
70969;BMP280;58630;43.022;25.100;2024-03-02T12:37:18;;;;13.70
70969;BMP280;58630;43.022;25.100;2024-03-02T12:39:46;;;;13.70
70969;BMP280;58630;43.022;25.100;2024-03-02T12:42:12;;;;13.70
70969;BMP280;58630;43.022;25.100;2024-03-02T12:44:39;;;;13.70
70969;BMP280;58630;43.022;25.100;2024-03-02T12:47:04;;;;13.70
70969;BMP280;58630;43.022;25.100;2024-03-02T12:49:30;;;;13.70
70969;BMP280;58630;43.022;25.100;2024-03-02T12:51:57;;;;13.70
70969;BMP280;58630;43.022;25.100;2024-03-02T12:54:23;;;;13.70
70969;BMP280;58630;43.022;25.100;2024-03-02T12:56:50;;;;13.70
70969;BMP280;58630;43.022;25.100;2024-03-02T12:59:23;;;;13.70
70969;BMP280;58630;43.022;25.100;2024-03-02T13:01:50;;;;13.70
70969;BMP280;58630;43.022;25.100;2024-03-02T13:04:15;;;;13.70
70969;BMP280;58630;43.022;25.100;2024-03-02T13:06:41;;;;13.70
70969;BMP280;58630;43.022;25.100;2024-03-02T13:09:06;;;;13.70
70969;BMP280;58630;43.022;25.100;2024-03-02T13:11:40;;;;13.70
70969;BMP280;58630;43.022;25.100;2024-03-02T13:14:05;;;;13.70
70969;BMP280;58630;43.022;25.100;2024-03-02T13:16:31;;;;13.70
70969;BMP280;58630;43.022;25.100;2024-03-02T13:18:57;;;;13.70
70969;BMP280;58630;43.022;25.100;2024-03-02T13:21:22;;;;13.70
70969;BMP280;58630;43.022;25.100;2024-03-02T13:23:48;;;;13.70
70969;BMP280;58630;43.022;25.100;2024-03-02T13:26:13;;;;13.70
70969;BMP280;58630;43.022;25.100;2024-03-02T13:28:39;;;;13.70
70969;BMP280;58630;43.022;25.100;2024-03-02T13:31:05;;;;13.70
70969;BMP280;58630;43.022;25.100;2024-03-02T13:33:30;;;;13.70
70969;BMP280;58630;43.022;25.100;2024-03-02T13:35:58;;;;13.70
70969;BMP280;58630;43.022;25.100;2024-03-02T13:38:23;;;;13.70
70969;BMP280;58630;43.022;25.100;2024-03-02T13:40:49;;;;13.70
70969;BMP280;58630;43.022;25.100;2024-03-02T13:43:17;;;;13.70
70969;BMP280;58630;43.022;25.100;2024-03-02T13:45:44;;;;13.60
70969;BMP280;58630;43.022;25.100;2024-03-02T13:48:09;;;;13.60
70969;BMP280;58630;43.022;25.100;2024-03-02T13:50:35;;;;13.60
70969;BMP280;58630;43.022;25.100;2024-03-02T13:53:01;;;;13.60
70969;BMP280;58630;43.022;25.100;2024-03-02T13:55:28;;;;13.60
70969;BMP280;58630;43.022;25.100;2024-03-02T13:57:53;;;;13.60
70969;BMP280;58630;43.022;25.100;2024-03-02T14:00:19;;;;13.60
70969;BMP280;58630;43.022;25.100;2024-03-02T14:02:45;;;;13.60
70969;BMP280;58630;43.022;25.100;2024-03-02T14:05:10;;;;13.60
70969;BMP280;58630;43.022;25.100;2024-03-02T14:07:40;;;;13.60
70969;BMP280;58630;43.022;25.100;2024-03-02T14:10:06;;;;13.60
70969;BMP280;58630;43.022;25.100;2024-03-02T14:12:31;;;;13.60
70969;BMP280;58630;43.022;25.100;2024-03-02T14:14:57;;;;13.60
70969;BMP280;58630;43.022;25.100;2024-03-02T14:17:28;;;;13.60
70969;BMP280;58630;43.022;25.100;2024-03-02T14:19:53;;;;13.60
70969;BMP280;58630;43.022;25.100;2024-03-02T14:22:19;;;;13.60
70969;BMP280;58630;43.022;25.100;2024-03-02T14:24:45;;;;13.60
70969;BMP280;58630;43.022;25.100;2024-03-02T14:27:10;;;;13.50
70969;BMP280;58630;43.022;25.100;2024-03-02T14:29:36;;;;13.50
70969;BMP280;58630;43.022;25.100;2024-03-02T14:32:06;;;;13.50
70969;BMP280;58630;43.022;25.100;2024-03-02T14:34:31;;;;13.60
70969;BMP280;58630;43.022;25.100;2024-03-02T14:36:58;;;;13.50
70969;BMP280;58630;43.022;25.100;2024-03-02T14:39:24;;;;13.50
70969;BMP280;58630;43.022;25.100;2024-03-02T14:41:49;;;;13.60
70969;BMP280;58630;43.022;25.100;2024-03-02T14:44:15;;;;13.50
70969;BMP280;58630;43.022;25.100;2024-03-02T14:46:42;;;;13.50
70969;BMP280;58630;43.022;25.100;2024-03-02T14:49:07;;;;13.50
70969;BMP280;58630;43.022;25.100;2024-03-02T14:51:33;;;;13.50
70969;BMP280;58630;43.022;25.100;2024-03-02T14:53:58;;;;13.50
70969;BMP280;58630;43.022;25.100;2024-03-02T14:56:24;;;;13.50
70969;BMP280;58630;43.022;25.100;2024-03-02T14:58:49;;;;13.50
70969;BMP280;58630;43.022;25.100;2024-03-02T15:01:16;;;;13.50
70969;BMP280;58630;43.022;25.100;2024-03-02T15:03:42;;;;13.50
70969;BMP280;58630;43.022;25.100;2024-03-02T15:06:08;;;;13.50
70969;BMP280;58630;43.022;25.100;2024-03-02T15:08:33;;;;13.50
70969;BMP280;58630;43.022;25.100;2024-03-02T15:10:59;;;;13.50
70969;BMP280;58630;43.022;25.100;2024-03-02T15:13:25;;;;13.50
70969;BMP280;58630;43.022;25.100;2024-03-02T15:15:51;;;;13.50
70969;BMP280;58630;43.022;25.100;2024-03-02T15:18:17;;;;13.50
70969;BMP280;58630;43.022;25.100;2024-03-02T15:20:43;;;;13.50
70969;BMP280;58630;43.022;25.100;2024-03-02T15:23:09;;;;13.40
70969;BMP280;58630;43.022;25.100;2024-03-02T15:25:34;;;;13.40
70969;BMP280;58630;43.022;25.100;2024-03-02T15:28:00;;;;13.40
70969;BMP280;58630;43.022;25.100;2024-03-02T15:30:25;;;;13.40
70969;BMP280;58630;43.022;25.100;2024-03-02T15:32:51;;;;13.40
70969;BMP280;58630;43.022;25.100;2024-03-02T15:35:17;;;;13.40
70969;BMP280;58630;43.022;25.100;2024-03-02T15:37:42;;;;13.40
70969;BMP280;58630;43.022;25.100;2024-03-02T15:40:08;;;;13.40
70969;BMP280;58630;43.022;25.100;2024-03-02T15:42:34;;;;13.40
70969;BMP280;58630;43.022;25.100;2024-03-02T15:45:00;;;;13.40
70969;BMP280;58630;43.022;25.100;2024-03-02T15:47:25;;;;13.40